Time;durP1;ratioP1;P1;durP2;ratioP2;P2;SDS_P1;SDS_P2;PMS_P1;PMS_P2;Temp;Humidity;BMP_temperature;BMP_pressure;BME280_temperature;BME280_humidity;BME280_pressure;Samples;Min_cycle;Max_cycle;Signal;HPM_P1;HPM_P2
2023/08/04 00:00:29;;;;;;;2.17;1.70;;;;;;;17.02;100.00;99905.94;5007009;28;20427;-77
2023/08/04 00:02:58;;;;;;;2.23;2.03;;;;;;;17.09;100.00;99902.97;5001679;28;20436;-78
2023/08/04 00:05:28;;;;;;;2.53;2.33;;;;;;;17.07;100.00;99905.97;5001887;28;20438;-79
2023/08/04 00:07:57;;;;;;;3.30;2.37;;;;;;;17.00;100.00;99915.47;5008075;28;20416;-78
2023/08/04 00:10:26;;;;;;;5.67;2.73;;;;;;;16.97;100.00;99916.03;4999182;28;20469;-78
2023/08/04 00:12:56;;;;;;;3.23;2.30;;;;;;;16.91;100.00;99917.91;5003010;28;20487;-78
2023/08/04 00:15:25;;;;;;;5.20;2.90;;;;;;;16.92;100.00;99931.31;4995659;28;20450;-78
2023/08/04 00:17:56;;;;;;;2.63;2.43;;;;;;;16.99;100.00;99930.25;5000310;28;20461;-78
2023/08/04 00:20:26;;;;;;;2.77;2.57;;;;;;;17.15;100.00;99940.13;5008720;28;20439;-77
2023/08/04 00:22:55;;;;;;;6.90;2.47;;;;;;;17.25;100.00;99940.19;5003707;28;20413;-78
2023/08/04 00:25:24;;;;;;;2.40;2.20;;;;;;;17.31;100.00;99934.47;4988804;28;20426;-78
2023/08/04 00:27:54;;;;;;;4.13;2.63;;;;;;;17.35;100.00;99943.75;4998848;28;20510;-77
2023/08/04 00:30:23;;;;;;;2.60;2.37;;;;;;;17.43;100.00;99945.13;4999139;28;20461;-77
2023/08/04 00:32:54;;;;;;;2.97;2.63;;;;;;;17.47;100.00;99948.19;4985791;28;20424;-77
2023/08/04 00:35:23;;;;;;;3.30;3.00;;;;;;;17.44;100.00;99954.16;4974863;28;20429;-78
2023/08/04 00:37:53;;;;;;;4.83;2.80;;;;;;;17.46;100.00;99952.81;4982496;28;20413;-76
2023/08/04 00:40:23;;;;;;;3.70;2.60;;;;;;;17.48;100.00;99950.63;4984179;28;20481;-77
2023/08/04 00:42:52;;;;;;;7.03;2.90;;;;;;;17.45;100.00;99955.81;4989666;28;20523;-77
2023/08/04 00:45:22;;;;;;;4.53;3.07;;;;;;;17.49;100.00;99948.72;5003023;28;20472;-77
2023/08/04 00:47:52;;;;;;;4.00;2.70;;;;;;;17.57;100.00;99953.66;5005738;28;20452;-77
2023/08/04 00:50:23;;;;;;;6.10;2.50;;;;;;;17.52;100.00;99957.22;5003072;28;20477;-78
2023/08/04 00:52:52;;;;;;;2.50;2.20;;;;;;;17.51;100.00;99963.78;4990935;28;20522;-78
2023/08/04 00:55:26;;;;;;;4.70;3.10;;;;;;;17.47;100.00;99970.88;4983772;28;20457;-78
2023/08/04 00:57:57;;;;;;;4.30;3.60;;;;;;;17.53;100.00;99971.69;4981172;28;20425;-78
2023/08/04 01:00:26;;;;;;;5.50;3.40;;;;;;;17.53;100.00;99969.78;4997962;28;20448;-77
2023/08/04 01:02:55;;;;;;;5.30;3.60;;;;;;;17.58;100.00;99971.69;4985267;28;20413;-77
2023/08/04 01:05:33;;;;;;;10.63;4.50;;;;;;;17.49;100.00;99967.84;4986773;28;20464;-78
2023/08/04 01:08:10;;;;;;;8.60;4.13;;;;;;;17.54;100.00;99971.44;4981324;28;20949;-77
2023/08/04 01:10:49;;;;;;;3.80;3.43;;;;;;;17.46;100.00;99968.41;4964761;28;20453;-77
2023/08/04 01:13:21;;;;;;;3.70;3.10;;;;;;;17.48;100.00;99975.25;4959269;28;20439;-77
2023/08/04 01:15:52;;;;;;;7.40;3.70;;;;;;;17.41;100.00;99969.22;4975313;28;20401;-77
2023/08/04 01:18:22;;;;;;;3.47;3.17;;;;;;;17.45;100.00;99977.69;4975597;28;20425;-77
2023/08/04 01:20:52;;;;;;;7.10;3.30;;;;;;;17.55;100.00;99977.72;4980088;28;20454;-77
2023/08/04 01:23:23;;;;;;;4.60;3.50;;;;;;;17.59;100.00;99981.59;4972505;28;20446;-78
2023/08/04 01:25:53;;;;;;;4.23;3.33;;;;;;;17.60;100.00;99985.97;4969985;28;20430;-78
2023/08/04 01:28:24;;;;;;;4.13;3.73;;;;;;;17.47;100.00;99981.00;4977312;28;20663;-78
2023/08/04 01:30:56;;;;;;;4.73;3.40;;;;;;;17.45;100.00;99984.00;4984621;28;20433;-78
2023/08/04 01:33:26;;;;;;;5.03;4.33;;;;;;;17.39;100.00;99990.53;4984463;28;20431;-78
2023/08/04 01:35:55;;;;;;;8.30;3.20;;;;;;;17.42;100.00;100000.13;4989658;28;20408;-76
2023/08/04 01:38:26;;;;;;;5.20;3.60;;;;;;;17.40;100.00;100005.84;4987912;28;20457;-77
2023/08/04 01:40:55;;;;;;;4.33;3.67;;;;;;;17.43;100.00;100021.72;4984890;28;20444;-77
2023/08/04 01:43:24;;;;;;;6.57;3.67;;;;;;;17.39;100.00;100029.63;4985458;28;20482;-77
2023/08/04 01:45:54;;;;;;;4.90;3.73;;;;;;;17.46;100.00;100034.88;4978840;28;20472;-77
2023/08/04 01:48:23;;;;;;;6.40;4.13;;;;;;;17.41;100.00;100048.53;4980022;28;20417;-78
2023/08/04 01:50:53;;;;;;;6.30;3.60;;;;;;;17.52;100.00;100052.97;4964721;28;20448;-77
2023/08/04 01:53:22;;;;;;;7.73;4.53;;;;;;;17.58;100.00;100062.81;4993363;28;20402;-78
2023/08/04 01:55:52;;;;;;;10.30;3.60;;;;;;;17.49;100.00;100067.16;4990813;28;20426;-77
2023/08/04 01:58:22;;;;;;;4.13;3.83;;;;;;;17.45;100.00;100074.25;4991554;28;20448;-78
2023/08/04 02:00:51;;;;;;;10.70;4.50;;;;;;;17.49;100.00;100077.25;4994353;28;20436;-78
2023/08/04 02:03:20;;;;;;;7.30;4.40;;;;;;;17.59;100.00;100085.53;4981664;28;20545;-79
2023/08/04 02:05:51;;;;;;;6.27;5.77;;;;;;;17.55;100.00;100090.72;4977383;28;20434;-78
2023/08/04 02:08:20;;;;;;;6.57;4.33;;;;;;;17.55;100.00;100093.44;4985015;28;20465;-78
2023/08/04 02:10:50;;;;;;;7.20;4.47;;;;;;;17.58;100.00;100101.09;4989810;28;20412;-78
2023/08/04 02:13:21;;;;;;;4.43;4.03;;;;;;;17.54;100.00;100097.25;4982243;28;20473;-78
2023/08/04 02:15:50;;;;;;;12.40;4.30;;;;;;;17.55;100.00;100101.66;4975373;28;20433;-78
2023/08/04 02:18:19;;;;;;;7.87;3.90;;;;;;;17.60;100.00;100107.19;4982371;28;20455;-76
2023/08/04 02:20:48;;;;;;;6.67;4.73;;;;;;;17.50;100.00;100118.03;4987092;28;20839;-77
2023/08/04 02:23:18;;;;;;;7.67;5.03;;;;;;;17.43;100.00;100114.69;4978362;28;20446;-77
2023/08/04 02:25:47;;;;;;;7.10;4.50;;;;;;;17.42;100.00;100120.47;4982191;28;21029;-77
2023/08/04 02:28:16;;;;;;;10.30;5.40;;;;;;;17.42;100.00;100117.72;4976099;28;20891;-77
2023/08/04 02:30:47;;;;;;;6.10;4.80;;;;;;;17.42;100.00;100126.75;4975274;28;20433;-77
2023/08/04 02:33:17;;;;;;;6.53;4.47;;;;;;;17.48;100.00;100125.69;4973172;28;20461;-78
2023/08/04 02:35:46;;;;;;;7.13;4.60;;;;;;;17.39;100.00;100127.28;4960007;28;20443;-77
2023/08/04 02:38:15;;;;;;;5.17;4.53;;;;;;;17.37;100.00;100118.53;4984753;28;20439;-77
2023/08/04 02:40:45;;;;;;;10.00;5.53;;;;;;;17.41;100.00;100127.84;4959348;28;20453;-78
2023/08/04 02:43:14;;;;;;;9.33;5.00;;;;;;;17.43;100.00;100128.38;4978024;28;20434;-78
2023/08/04 02:45:51;;;;;;;9.67;5.47;;;;;;;17.45;100.00;100131.69;4959398;28;20430;-77
2023/08/04 02:48:20;;;;;;;6.90;5.50;;;;;;;17.35;100.00;100137.94;4987777;28;20432;-78
2023/08/04 02:51:01;;;;;;;8.67;5.27;;;;;;;17.46;100.00;100133.34;4978958;28;20409;-78
2023/08/04 02:53:31;;;;;;;10.17;5.03;;;;;;;17.47;100.00;100140.47;4979878;28;20955;-77
2023/08/04 02:56:00;;;;;;;6.73;4.90;;;;;;;17.49;100.00;100130.06;4964326;28;20467;-77
2023/08/04 02:58:30;;;;;;;13.47;6.10;;;;;;;17.45;100.00;100125.38;4983607;28;20441;-77
2023/08/04 03:01:00;;;;;;;9.07;5.00;;;;;;;17.49;100.00;100118.28;4986077;28;20532;-77
2023/08/04 03:03:30;;;;;;;12.47;7.50;;;;;;;17.39;100.00;100130.00;4986152;28;20431;-78
2023/08/04 03:05:59;;;;;;;12.20;5.90;;;;;;;17.42;100.00;100137.69;5006416;28;20430;-77
2023/08/04 03:08:29;;;;;;;7.03;5.80;;;;;;;17.35;100.00;100137.09;4993770;28;20444;-78
2023/08/04 03:10:59;;;;;;;8.07;5.53;;;;;;;17.34;100.00;100135.44;4982778;28;20409;-77
2023/08/04 03:13:29;;;;;;;6.27;5.33;;;;;;;17.36;100.00;100141.47;4972931;28;20425;-78
2023/08/04 03:16:01;;;;;;;10.07;5.67;;;;;;;17.36;100.00;100144.22;4977078;28;20402;-77
2023/08/04 03:18:31;;;;;;;8.10;5.90;;;;;;;17.38;100.00;100136.56;4984298;28;20836;-77
2023/08/04 03:21:03;;;;;;;7.33;5.13;;;;;;;17.45;100.00;100137.16;4988495;28;20475;-77
2023/08/04 03:23:32;;;;;;;7.53;5.43;;;;;;;17.41;100.00;100146.97;4974435;28;20798;-77
2023/08/04 03:26:02;;;;;;;8.77;5.37;;;;;;;17.38;100.00;100144.75;4980207;28;20416;-77
2023/08/04 03:28:31;;;;;;;8.50;6.17;;;;;;;17.30;100.00;100145.28;4987112;28;20859;-77
2023/08/04 03:31:03;;;;;;;8.97;5.80;;;;;;;17.14;100.00;100147.06;4982278;28;20480;-78
2023/08/04 03:33:32;;;;;;;6.93;5.20;;;;;;;17.01;100.00;100149.44;4955112;28;20792;-78
2023/08/04 03:36:02;;;;;;;10.23;6.70;;;;;;;16.93;100.00;100146.13;4977819;28;20473;-77
2023/08/04 03:38:31;;;;;;;6.60;5.07;;;;;;;16.96;100.00;100150.22;4974640;28;20495;-77
2023/08/04 03:41:00;;;;;;;14.53;5.10;;;;;;;16.94;100.00;100158.69;4975481;28;20852;-76
2023/08/04 03:43:29;;;;;;;13.27;6.20;;;;;;;16.88;100.00;100159.75;4973371;28;20437;-77
2023/08/04 03:45:58;;;;;;;14.17;7.47;;;;;;;16.92;100.00;100171.81;4981452;28;20431;-78
2023/08/04 03:48:29;;;;;;;12.20;6.30;;;;;;;16.90;100.00;100173.97;4979790;28;20422;-77
2023/08/04 03:50:58;;;;;;;12.77;6.40;;;;;;;16.85;100.00;100171.19;4959324;28;20456;-77
2023/08/04 03:53:27;;;;;;;8.30;6.30;;;;;;;16.77;100.00;100168.13;4979480;28;20467;-77
2023/08/04 03:55:57;;;;;;;11.93;6.60;;;;;;;16.73;100.00;100167.81;4979588;28;20440;-77
2023/08/04 03:58:26;;;;;;;12.47;7.50;;;;;;;16.72;100.00;100174.38;4982461;28;20453;-78
2023/08/04 04:00:56;;;;;;;10.03;6.40;;;;;;;16.70;100.00;100181.97;4989361;28;20445;-77
2023/08/04 04:03:25;;;;;;;10.50;6.87;;;;;;;16.74;100.00;100185.03;5006033;28;20397;-77
2023/08/04 04:05:55;;;;;;;10.93;7.73;;;;;;;16.78;100.00;100187.00;4981132;28;20410;-77
2023/08/04 04:08:25;;;;;;;7.33;6.37;;;;;;;16.93;100.00;100184.38;4989342;28;20447;-78
2023/08/04 04:10:55;;;;;;;10.73;6.00;;;;;;;17.16;100.00;100183.19;4969260;28;20415;-78
2023/08/04 04:13:24;;;;;;;10.50;6.70;;;;;;;17.43;100.00;100177.59;4995520;28;20429;-77
2023/08/04 04:15:53;;;;;;;14.60;6.40;;;;;;;17.34;100.00;100174.56;4973207;28;20421;-76
2023/08/04 04:18:22;;;;;;;8.50;5.53;;;;;;;17.08;100.00;100191.06;4980812;28;20443;-77
2023/08/04 04:20:52;;;;;;;12.60;6.30;;;;;;;17.01;100.00;100184.97;4979059;28;20491;-77
2023/08/04 04:23:22;;;;;;;9.10;6.83;;;;;;;16.97;100.00;100192.88;4964332;28;20450;-77
2023/08/04 04:25:52;;;;;;;10.30;5.80;;;;;;;16.93;100.00;100200.78;4978781;28;20794;-77
2023/08/04 04:28:21;;;;;;;19.60;7.30;;;;;;;16.94;100.00;100199.69;4961075;28;20820;-78
2023/08/04 04:30:51;;;;;;;13.03;6.97;;;;;;;17.16;100.00;100201.50;4978587;28;20430;-77
2023/08/04 04:33:20;;;;;;;14.40;6.17;;;;;;;17.60;100.00;100205.66;4968119;28;20428;-78
2023/08/04 04:35:51;;;;;;;12.10;7.00;;;;;;;17.77;100.00;100208.19;4976745;28;20506;-78
2023/08/04 04:38:27;;;;;;;11.80;6.27;;;;;;;18.24;98.75;100214.44;4975226;28;20509;-78
2023/08/04 04:40:57;;;;;;;9.00;6.30;;;;;;;18.38;97.01;100222.16;4977837;28;20475;-78
2023/08/04 04:43:27;;;;;;;13.57;6.23;;;;;;;17.99;98.83;100232.69;4974214;28;20413;-78
2023/08/04 04:45:57;;;;;;;12.77;6.80;;;;;;;17.84;99.50;100240.81;4976940;28;20409;-78
2023/08/04 04:48:27;;;;;;;10.63;6.90;;;;;;;17.70;100.00;100248.66;4978970;28;20454;-77
2023/08/04 04:51:00;;;;;;;10.93;5.70;;;;;;;17.68;100.00;100251.66;4974133;28;20432;-77
2023/08/04 04:53:31;;;;;;;9.40;6.53;;;;;;;18.06;98.58;100252.41;4960078;28;20447;-77
2023/08/04 04:56:01;;;;;;;11.60;5.30;;;;;;;18.06;97.20;100253.22;4974197;28;20410;-77
2023/08/04 04:58:30;;;;;;;12.77;6.30;;;;;;;18.02;97.53;100257.59;4975053;28;20836;-78
2023/08/04 05:01:03;;;;;;;7.73;4.60;;;;;;;17.89;98.31;100263.56;4982890;28;20445;-77
2023/08/04 05:03:33;;;;;;;8.63;5.90;;;;;;;17.91;98.56;100261.38;4976736;28;20441;-78
2023/08/04 05:06:02;;;;;;;7.63;6.83;;;;;;;17.86;97.20;100276.97;4983604;28;20488;-78
2023/08/04 05:08:33;;;;;;;11.57;5.70;;;;;;;17.64;98.21;100266.13;4991760;28;20456;-78
2023/08/04 05:11:02;;;;;;;8.30;5.17;;;;;;;17.73;99.31;100280.97;4989424;28;20409;-78
2023/08/04 05:13:32;;;;;;;7.80;5.07;;;;;;;17.66;97.57;100280.41;4982910;28;20807;-78
2023/08/04 05:16:01;;;;;;;9.40;6.50;;;;;;;17.54;98.09;100283.28;4981724;28;20408;-78
2023/08/04 05:18:30;;;;;;;13.13;5.40;;;;;;;17.35;98.73;100290.25;4983105;28;20470;-78
2023/08/04 05:21:00;;;;;;;6.20;5.60;;;;;;;17.34;99.57;100292.16;4984470;28;20827;-77
2023/08/04 05:23:30;;;;;;;14.53;5.27;;;;;;;17.37;99.52;100296.28;4985328;28;20405;-78
2023/08/04 05:26:01;;;;;;;6.50;5.10;;;;;;;17.36;100.00;100292.72;4976692;28;20514;-77
2023/08/04 05:28:32;;;;;;;8.13;5.73;;;;;;;17.46;100.00;100297.44;4980919;28;20465;-77
2023/08/04 05:31:04;;;;;;;6.80;4.30;;;;;;;17.43;99.09;100297.94;4981312;28;20463;-77
2023/08/04 05:33:34;;;;;;;10.90;5.27;;;;;;;17.49;100.00;100305.13;4981982;28;20409;-79
2023/08/04 05:36:03;;;;;;;9.10;5.43;;;;;;;17.45;97.62;100308.66;4971480;28;20509;-78
2023/08/04 05:38:33;;;;;;;6.30;5.53;;;;;;;17.35;98.65;100306.66;4981186;28;20980;-78
2023/08/04 05:41:05;;;;;;;8.13;4.60;;;;;;;17.62;97.58;100307.44;4965327;28;20421;-78
2023/08/04 05:43:34;;;;;;;6.83;4.70;;;;;;;17.76;97.17;100308.66;4995495;28;20424;-78
2023/08/04 05:46:04;;;;;;;14.63;5.27;;;;;;;17.89;95.70;100318.31;4987891;28;20413;-78
2023/08/04 05:48:35;;;;;;;6.07;5.23;;;;;;;17.74;95.30;100321.75;4987856;28;20879;-78
2023/08/04 05:51:04;;;;;;;11.20;5.30;;;;;;;17.74;95.89;100327.25;4967795;28;20492;-79
2023/08/04 05:53:34;;;;;;;7.90;5.60;;;;;;;17.96;94.45;100329.03;4981162;28;20405;-79
2023/08/04 05:56:05;;;;;;;7.50;4.97;;;;;;;17.95;94.76;100338.31;4962691;28;20516;-78
2023/08/04 05:58:34;;;;;;;8.63;4.90;;;;;;;18.15;93.67;100338.47;4979793;28;20451;-77
2023/08/04 06:01:03;;;;;;;10.40;5.43;;;;;;;18.23;92.15;100343.41;4983678;28;20415;-78
2023/08/04 06:03:32;;;;;;;7.27;5.27;;;;;;;18.57;90.18;100335.66;4978069;28;20480;-78
2023/08/04 06:06:01;;;;;;;9.60;5.23;;;;;;;19.01;89.34;100344.31;4976814;28;20437;-78
2023/08/04 06:08:30;;;;;;;10.40;5.07;;;;;;;18.91;88.06;100341.53;4988022;28;20465;-78
2023/08/04 06:11:00;;;;;;;9.80;4.03;;;;;;;18.66;88.91;100348.59;4975868;28;20816;-79
2023/08/04 06:13:31;;;;;;;6.97;4.67;;;;;;;18.56;90.82;100351.28;4981114;28;20423;-78
2023/08/04 06:16:00;;;;;;;6.03;4.67;;;;;;;18.61;91.51;100359.53;4978780;28;20413;-77
2023/08/04 06:18:29;;;;;;;11.17;6.30;;;;;;;18.57;91.45;100363.88;4976274;28;20481;-77
2023/08/04 06:20:59;;;;;;;12.70;5.60;;;;;;;18.38;90.83;100364.59;4988834;28;20409;-78
2023/08/04 06:23:29;;;;;;;9.47;4.73;;;;;;;18.34;91.53;100364.31;4977209;28;20532;-78
2023/08/04 06:25:58;;;;;;;8.93;5.53;;;;;;;18.33;91.84;100357.16;4982726;28;20988;-78
2023/08/04 06:28:27;;;;;;;9.13;5.70;;;;;;;18.58;90.39;100367.47;4979869;28;20468;-79
2023/08/04 06:30:58;;;;;;;12.10;5.37;;;;;;;18.80;88.54;100372.75;4977857;28;20512;-78
2023/08/04 06:33:28;;;;;;;9.50;5.43;;;;;;;18.58;89.21;100375.69;4974706;28;20554;-78
2023/08/04 06:35:57;;;;;;;12.23;5.40;;;;;;;18.41;89.40;100377.75;4968183;28;20945;-79
2023/08/04 06:38:26;;;;;;;7.40;5.13;;;;;;;18.29;90.69;100386.19;4984484;28;20924;-78
2023/08/04 06:40:56;;;;;;;6.13;4.30;;;;;;;18.46;90.64;100395.03;4959408;28;20504;-77
2023/08/04 06:43:25;;;;;;;7.47;4.83;;;;;;;18.51;88.87;100396.97;4995805;28;21011;-79
2023/08/04 06:45:54;;;;;;;7.40;4.40;;;;;;;18.49;89.03;100410.94;4989986;28;20437;-79
2023/08/04 06:48:26;;;;;;;11.17;4.67;;;;;;;18.45;89.52;100409.81;4981567;28;20440;-78
2023/08/04 06:50:56;;;;;;;9.10;5.73;;;;;;;18.42;89.24;100413.09;4985022;28;20903;-79
2023/08/04 06:53:25;;;;;;;9.90;4.50;;;;;;;18.45;89.05;100415.28;4978316;28;20559;-78
2023/08/04 06:55:54;;;;;;;10.57;4.60;;;;;;;18.51;87.91;100419.72;4978910;28;20397;-79
2023/08/04 06:58:23;;;;;;;11.47;5.10;;;;;;;18.67;87.62;100424.22;4988010;28;20496;-79
2023/08/04 07:00:52;;;;;;;11.87;5.40;;;;;;;18.91;85.54;100429.25;4973432;28;20897;-78
2023/08/04 07:03:22;;;;;;;6.30;4.33;;;;;;;19.25;83.32;100433.22;4980304;28;20965;-77
2023/08/04 07:05:52;;;;;;;11.50;4.47;;;;;;;19.01;82.97;100429.31;4974752;28;20850;-78
2023/08/04 07:08:22;;;;;;;11.50;5.90;;;;;;;19.00;83.00;100435.88;4976889;28;20426;-78
2023/08/04 07:10:51;;;;;;;9.67;4.03;;;;;;;18.88;82.96;100435.28;4985689;28;20772;-79
2023/08/04 07:13:20;;;;;;;7.23;4.40;;;;;;;18.94;82.60;100429.53;4973462;28;20469;-79
2023/08/04 07:15:56;;;;;;;10.50;4.67;;;;;;;19.26;80.23;100431.31;4984414;28;20612;-79
2023/08/04 07:18:25;;;;;;;9.57;4.90;;;;;;;19.52;79.70;100431.09;4983522;28;20517;-78
2023/08/04 07:21:05;;;;;;;11.27;4.10;;;;;;;19.89;78.67;100441.03;4990560;28;20406;-78
2023/08/04 07:23:34;;;;;;;7.17;4.27;;;;;;;20.22;76.61;100434.13;4988542;28;20428;-78
2023/08/04 07:26:05;;;;;;;8.80;4.20;;;;;;;20.36;74.56;100447.06;4986393;28;20427;-79
2023/08/04 07:28:35;;;;;;;6.57;4.40;;;;;;;19.87;76.28;100452.28;4963574;28;20529;-80
2023/08/04 07:31:05;;;;;;;5.00;4.50;;;;;;;19.74;76.46;100454.75;4981209;28;20783;-79
2023/08/04 07:33:34;;;;;;;6.03;4.30;;;;;;;19.92;77.75;100454.19;4978662;28;20409;-79
2023/08/04 07:36:06;;;;;;;4.50;3.83;;;;;;;20.14;76.43;100460.22;4984701;28;20435;-79
2023/08/04 07:38:35;;;;;;;10.10;4.10;;;;;;;20.92;74.53;100466.13;4986325;28;20479;-79
2023/08/04 07:41:05;;;;;;;8.27;3.83;;;;;;;20.90;72.83;100462.84;4975848;28;20439;-79
2023/08/04 07:43:34;;;;;;;5.70;3.50;;;;;;;21.07;70.40;100465.25;4979899;28;20749;-79
2023/08/04 07:46:04;;;;;;;9.53;5.47;;;;;;;21.27;70.48;100467.94;4989041;28;20437;-80
2023/08/04 07:48:33;;;;;;;7.77;4.87;;;;;;;21.19;69.75;100474.88;4985161;28;20466;-80
2023/08/04 07:51:07;;;;;;;9.63;4.40;;;;;;;20.32;70.89;100470.69;4988885;28;20937;-80
2023/08/04 07:53:36;;;;;;;7.17;3.83;;;;;;;20.08;72.17;100475.06;4967664;28;20869;-79
2023/08/04 07:56:05;;;;;;;9.43;4.37;;;;;;;20.13;73.24;100486.06;4988469;28;20413;-79
2023/08/04 07:58:35;;;;;;;7.97;3.80;;;;;;;19.61;74.70;100467.06;4985050;28;20471;-80
2023/08/04 08:01:07;;;;;;;5.93;3.83;;;;;;;19.28;77.39;100478.47;4979295;28;20461;-79
2023/08/04 08:03:38;;;;;;;6.60;3.50;;;;;;;19.28;78.96;100479.31;4964520;28;20967;-79
2023/08/04 08:06:09;;;;;;;6.33;3.93;;;;;;;19.66;77.88;100477.22;4977691;28;20417;-79
2023/08/04 08:08:39;;;;;;;5.77;3.77;;;;;;;19.88;76.68;100483.31;4981034;28;20979;-79
2023/08/04 08:11:11;;;;;;;6.23;3.67;;;;;;;20.28;74.86;100482.50;4976558;28;20512;-79
2023/08/04 08:13:40;;;;;;;7.83;3.80;;;;;;;20.61;73.99;100484.66;4986296;28;20397;-81
2023/08/04 08:16:11;;;;;;;5.53;4.20;;;;;;;20.75;71.16;100493.16;4982096;28;20416;-78
2023/08/04 08:18:43;;;;;;;7.07;3.80;;;;;;;21.17;71.51;100501.00;4978361;28;20470;-78
2023/08/04 08:21:14;;;;;;;8.13;5.57;;;;;;;21.71;69.54;100506.50;4981275;28;20423;-77
2023/08/04 08:23:43;;;;;;;9.00;4.23;;;;;;;21.73;67.92;100509.81;4985916;28;20467;-79
2023/08/04 08:26:12;;;;;;;15.30;4.90;;;;;;;20.79;68.88;100507.97;4988296;28;20447;-79
2023/08/04 08:28:42;;;;;;;7.03;3.77;;;;;;;20.60;71.02;100517.91;4973399;28;20476;-80
2023/08/04 08:31:11;;;;;;;11.40;4.40;;;;;;;20.33;73.76;100519.03;4995849;28;20497;-79
2023/08/04 08:33:40;;;;;;;7.27;4.27;;;;;;;20.36;72.80;100518.50;4991209;28;20447;-79
2023/08/04 08:36:10;;;;;;;5.43;4.00;;;;;;;20.11;73.66;100518.47;5003522;28;20651;-80
2023/08/04 08:38:40;;;;;;;12.27;4.60;;;;;;;20.23;72.61;100529.19;4980612;28;20489;-79
2023/08/04 08:41:11;;;;;;;4.27;3.60;;;;;;;20.50;70.64;100528.94;4973367;28;20469;-79
2023/08/04 08:43:40;;;;;;;6.60;3.40;;;;;;;20.73;68.38;100533.84;4983372;28;20473;-79
2023/08/04 08:46:12;;;;;;;7.90;4.10;;;;;;;20.98;67.40;100533.78;4979649;28;20462;-79
2023/08/04 08:48:45;;;;;;;8.60;4.20;;;;;;;20.91;67.16;100536.03;4987459;28;20458;-79
2023/08/04 08:51:20;;;;;;;5.90;3.77;;;;;;;21.00;66.03;100539.00;4977950;28;20442;-78
2023/08/04 08:53:51;;;;;;;5.60;3.90;;;;;;;21.09;67.11;100537.34;4997551;28;20535;-79
2023/08/04 08:56:21;;;;;;;9.27;4.03;;;;;;;21.80;65.89;100537.84;4990134;28;20822;-80
2023/08/04 08:58:50;;;;;;;5.37;3.30;;;;;;;22.07;63.68;100537.44;4987889;28;20452;-80
2023/08/04 09:01:21;;;;;;;10.10;3.83;;;;;;;22.63;61.54;100543.28;4992603;28;20457;-80
2023/08/04 09:03:50;;;;;;;6.60;4.27;;;;;;;23.07;61.47;100539.53;4994681;28;20474;-79
2023/08/04 09:06:19;;;;;;;7.23;3.80;;;;;;;23.53;60.25;100535.13;4983213;28;20800;-80
2023/08/04 09:08:50;;;;;;;6.07;3.53;;;;;;;23.27;60.00;100536.53;4983534;28;20445;-78
2023/08/04 09:11:20;;;;;;;5.80;3.27;;;;;;;23.03;60.28;100533.78;4988666;28;20992;-78
2023/08/04 09:13:49;;;;;;;9.43;4.50;;;;;;;23.10;59.72;100544.47;4991740;28;20441;-80
2023/08/04 09:16:31;;;;;;;6.47;3.70;;;;;;;22.75;59.99;100543.72;4992385;28;20475;-79
2023/08/04 09:19:03;;;;;;;5.43;2.80;;;;;;;22.70;58.15;100549.31;4980783;28;20461;-79
2023/08/04 09:21:33;;;;;;;5.70;3.00;;;;;;;22.66;56.72;100548.22;4982457;28;20514;-79
2023/08/04 09:24:08;;;;;;;4.10;3.13;;;;;;;22.82;57.73;100555.25;4966959;28;20495;-80
2023/08/04 09:26:43;;;;;;;7.93;3.23;;;;;;;23.16;58.26;100559.84;4980989;28;20433;-80
2023/08/04 09:29:18;;;;;;;5.73;3.10;;;;;;;23.08;55.43;100555.81;4992857;28;20557;-82
2023/08/04 09:31:49;;;;;;;6.03;2.60;;;;;;;22.40;56.63;100558.66;4979261;28;20436;-79
2023/08/04 09:34:19;;;;;;;7.23;3.40;;;;;;;22.25;57.79;100566.22;4983962;28;20446;-79
2023/08/04 09:36:49;;;;;;;3.73;3.20;;;;;;;22.49;57.06;100569.88;4976724;28;20896;-80
2023/08/04 09:39:20;;;;;;;7.30;2.97;;;;;;;22.62;57.41;100565.63;4984974;28;20980;-79
2023/08/04 09:41:49;;;;;;;5.03;2.87;;;;;;;22.80;56.59;100568.50;4978074;28;20450;-79
2023/08/04 09:44:19;;;;;;;5.53;3.07;;;;;;;22.70;57.61;100576.91;4988496;28;20531;-79
2023/08/04 09:46:53;;;;;;;6.00;3.70;;;;;;;22.92;57.42;100579.97;4983827;28;20438;-79
2023/08/04 09:49:23;;;;;;;5.03;3.47;;;;;;;23.12;57.25;100580.88;4990136;28;20465;-80
2023/08/04 09:51:56;;;;;;;4.30;2.93;;;;;;;23.22;58.38;100569.72;4989481;28;20817;-78
2023/08/04 09:54:27;;;;;;;3.80;2.80;;;;;;;23.38;56.17;100572.00;4972922;28;20952;-79
2023/08/04 09:56:57;;;;;;;6.23;2.87;;;;;;;23.83;56.32;100559.56;4980793;28;20933;-78
2023/08/04 09:59:27;;;;;;;4.63;3.10;;;;;;;24.00;54.50;100559.06;4984736;28;21159;-79
2023/08/04 10:01:57;;;;;;;4.90;2.80;;;;;;;23.60;54.89;100567.91;4966159;28;20455;-79
2023/08/04 10:04:27;;;;;;;4.17;3.77;;;;;;;23.00;55.91;100566.66;4980955;28;20462;-80
2023/08/04 10:06:58;;;;;;;7.17;3.63;;;;;;;22.46;57.21;100564.97;4985391;28;20434;-78
2023/08/04 10:09:31;;;;;;;8.27;3.23;;;;;;;22.28;59.10;100568.38;4984830;28;20453;-80
2023/08/04 10:12:04;;;;;;;4.93;3.20;;;;;;;22.20;59.76;100569.00;4986059;28;20446;-79
2023/08/04 10:14:35;;;;;;;4.07;3.50;;;;;;;21.92;62.49;100565.88;4983628;28;20423;-79
2023/08/04 10:17:05;;;;;;;5.97;3.80;;;;;;;21.88;62.85;100575.00;4988787;28;20417;-80
2023/08/04 10:19:36;;;;;;;5.13;3.13;;;;;;;22.18;63.51;100576.72;4964723;28;20480;-78
2023/08/04 10:22:07;;;;;;;6.93;3.93;;;;;;;22.14;62.60;100587.50;4981179;28;20435;-77
2023/08/04 10:24:41;;;;;;;5.53;4.03;;;;;;;21.59;64.07;100581.19;4980289;28;20489;-78
2023/08/04 10:27:16;;;;;;;7.23;4.47;;;;;;;22.05;64.14;100589.22;4985521;28;20534;-79
2023/08/04 10:29:45;;;;;;;6.40;3.47;;;;;;;22.22;63.54;100588.84;4984066;28;20449;-79
2023/08/04 10:32:18;;;;;;;11.57;3.87;;;;;;;22.39;63.14;100590.09;4992571;28;20396;-80
2023/08/04 10:34:51;;;;;;;5.90;3.83;;;;;;;22.37;63.27;100585.97;4991146;28;20418;-80
2023/08/04 10:37:20;;;;;;;5.07;3.77;;;;;;;22.51;62.55;100585.00;4983397;28;20797;-80
2023/08/04 10:40:01;;;;;;;5.30;3.37;;;;;;;22.82;60.14;100587.53;4985114;28;20456;-79
2023/08/04 10:42:32;;;;;;;4.73;3.13;;;;;;;23.25;59.26;100591.22;4971747;28;20458;-81
2023/08/04 10:45:05;;;;;;;4.30;3.20;;;;;;;23.96;56.99;100596.72;4989684;28;20458;-79
2023/08/04 10:47:42;;;;;;;8.13;3.47;;;;;;;24.55;54.18;100592.47;4990711;28;20472;-80
2023/08/04 10:50:31;;;;;;;5.53;3.50;;;;;;;24.23;54.19;100594.09;4984488;28;20918;-79
2023/08/04 10:53:01;;;;;;;7.10;3.90;;;;;;;24.38;55.37;100595.81;4985130;28;20427;-81
2023/08/04 10:55:35;;;;;;;4.37;3.17;;;;;;;24.23;55.08;100585.81;4963258;28;20466;-79
2023/08/04 10:58:15;;;;;;;5.73;3.50;;;;;;;24.19;54.64;100586.72;4979640;28;20443;-79
2023/08/04 11:00:45;;;;;;;5.17;3.17;;;;;;;23.96;55.20;100595.88;4986485;28;20437;-79
2023/08/04 11:03:22;;;;;;;8.37;3.70;;;;;;;23.66;55.38;100588.81;4990199;28;20431;-78
2023/08/04 11:05:53;;;;;;;10.97;3.73;;;;;;;23.58;56.68;100587.53;4984057;28;20488;-79
2023/08/04 11:08:24;;;;;;;5.53;3.33;;;;;;;23.88;56.44;100589.06;4987512;28;20454;-80
2023/08/04 11:10:57;;;;;;;4.00;3.20;;;;;;;23.98;56.55;100577.88;4981312;28;20431;-79
2023/08/04 11:13:27;;;;;;;5.37;3.80;;;;;;;23.38;56.59;100579.50;4983023;28;20882;-79
2023/08/04 11:15:57;;;;;;;7.03;3.80;;;;;;;23.62;57.69;100585.00;4982402;28;20960;-79
2023/08/04 11:18:29;;;;;;;5.13;3.20;;;;;;;23.37;54.33;100572.31;4983592;28;20467;-79
2023/08/04 11:21:02;;;;;;;3.40;2.23;;;;;;;23.16;51.27;100565.38;4974889;28;20441;-79
2023/08/04 11:23:32;;;;;;;3.00;2.40;;;;;;;23.23;51.33;100572.22;4988055;28;20434;-81
2023/08/04 11:26:03;;;;;;;3.57;2.50;;;;;;;22.88;54.02;100570.66;4996251;28;20505;-79
2023/08/04 11:28:34;;;;;;;7.00;2.80;;;;;;;23.03;53.47;100566.91;4993288;28;20465;-79
2023/08/04 11:31:05;;;;;;;3.90;2.70;;;;;;;23.07;53.26;100564.38;4966380;28;20764;-79
2023/08/04 11:33:34;;;;;;;5.20;2.90;;;;;;;23.02;54.00;100569.94;4990261;28;20431;-80
2023/08/04 11:36:04;;;;;;;3.40;2.57;;;;;;;23.35;54.32;100563.50;4990440;28;20458;-80